createdAt,value
2019-04-03T00:03:49.168Z,8.27
2019-04-03T00:07:51.049Z,8.00
2019-04-03T00:11:53.488Z,6.90
2019-04-03T00:15:56.357Z,7.43
2019-04-03T00:19:58.438Z,11.97
2019-04-03T00:24:00.356Z,8.60
2019-04-03T00:28:02.220Z,10.67
2019-04-03T00:32:04.687Z,10.63
2019-04-03T00:36:06.713Z,18.65
2019-04-03T00:40:09.418Z,18.35
2019-04-03T00:44:11.325Z,12.93
2019-04-03T00:48:13.206Z,11.40
2019-04-03T00:52:15.141Z,13.67
2019-04-03T00:56:18.020Z,13.97
2019-04-03T01:00:19.956Z,9.97
2019-04-03T01:04:21.876Z,14.10
2019-04-03T01:08:23.959Z,14.03
2019-04-03T01:12:25.850Z,11.97
2019-04-03T01:16:27.846Z,15.57
2019-04-03T01:20:29.758Z,10.13
2019-04-03T01:24:31.655Z,8.87
2019-04-03T01:28:33.539Z,11.70
2019-04-03T01:32:36.417Z,10.53
2019-04-03T01:36:38.329Z,17.10
2019-04-03T01:40:40.230Z,8.63
2019-04-03T01:44:42.121Z,7.03
2019-04-03T01:48:44.007Z,12.87
2019-04-03T01:52:45.924Z,11.83
2019-04-03T01:56:48.004Z,16.60
2019-04-03T02:00:50.132Z,11.63
2019-04-03T02:04:52.057Z,16.77
2019-04-03T02:08:53.957Z,9.80
2019-04-03T02:12:56.037Z,14.63
2019-04-03T02:16:58.025Z,13.28
2019-04-03T02:20:59.915Z,12.25
2019-04-03T02:25:02.281Z,13.73
2019-04-03T02:29:06.662Z,8.85
2019-04-03T02:33:08.449Z,13.32
2019-04-03T02:37:10.346Z,10.90
2019-04-03T02:41:12.421Z,10.43
2019-04-03T02:45:15.719Z,14.33
2019-04-03T02:49:17.600Z,9.53
2019-04-03T02:53:20.383Z,9.30
2019-04-03T02:57:22.349Z,9.03
2019-04-03T03:01:24.245Z,11.27
2019-04-03T03:05:28.102Z,8.20
2019-04-03T03:09:31.745Z,9.37
2019-04-03T03:13:35.247Z,15.97
2019-04-03T03:17:39.184Z,13.40
2019-04-03T03:21:43.890Z,14.97
2019-04-03T03:25:46.446Z,16.97
2019-04-03T03:29:48.978Z,12.00
2019-04-03T03:33:51.286Z,17.53
2019-04-03T03:37:54.147Z,7.80
2019-04-03T03:41:58.519Z,8.07
2019-04-03T03:46:01.504Z,19.12
2019-04-03T03:50:04.436Z,14.73
2019-04-03T03:54:06.827Z,22.22
2019-04-03T03:58:12.550Z,18.40
2019-04-03T04:02:13.832Z,22.97
2019-04-03T04:06:15.827Z,18.07
2019-04-03T04:10:17.716Z,19.20
2019-04-03T04:14:22.846Z,17.17
2019-04-03T04:18:25.832Z,18.83
2019-04-03T04:22:28.586Z,14.53
2019-04-03T04:26:31.795Z,15.07
2019-04-03T04:30:34.966Z,16.77
2019-04-03T04:34:37.175Z,13.33
2019-04-03T04:38:39.149Z,19.43
2019-04-03T04:42:41.056Z,13.83
2019-04-03T04:46:44.532Z,13.43
2019-04-03T04:50:46.642Z,18.00
2019-04-03T04:54:48.632Z,16.67
2019-04-03T04:58:50.527Z,16.47
2019-04-03T05:02:52.441Z,10.83
2019-04-03T05:06:54.345Z,11.50
2019-04-03T05:10:56.231Z,6.83
2019-04-03T05:14:58.150Z,19.00
2019-04-03T05:19:09.499Z,12.27
2019-04-03T05:23:04.092Z,18.07
2019-04-03T05:27:08.147Z,9.60
2019-04-03T05:31:09.848Z,17.30
2019-04-03T05:35:14.584Z,19.90
2019-04-03T05:39:15.463Z,17.07
2019-04-03T05:43:17.442Z,12.23
2019-04-03T05:47:19.440Z,17.43
2019-04-03T05:51:21.308Z,13.10
2019-04-03T05:55:23.384Z,17.60
2019-04-03T05:59:25.295Z,11.07
2019-04-03T06:03:38.822Z,19.40
2019-04-03T06:07:30.989Z,19.10
2019-04-03T06:11:33.177Z,20.67
2019-04-03T06:15:35.248Z,17.97
2019-04-03T06:19:39.739Z,20.07
2019-04-03T06:28:14.733Z,15.23
2019-04-03T06:32:17.053Z,13.93
2019-04-03T06:36:19.244Z,18.20
2019-04-03T06:40:21.133Z,14.13
2019-04-03T06:44:23.155Z,11.80
2019-04-03T06:48:26.081Z,9.00
2019-04-03T06:52:27.978Z,18.63
2019-04-03T06:56:29.910Z,14.30
2019-04-03T07:00:31.847Z,17.73
2019-04-03T07:04:33.751Z,15.13
2019-04-03T07:08:38.043Z,20.07
2019-04-03T07:12:40.276Z,18.07
2019-04-03T07:16:42.255Z,16.70
2019-04-03T07:20:44.162Z,16.93
2019-04-03T07:24:47.128Z,20.60
2019-04-03T07:28:49.115Z,16.83
2019-04-03T07:32:51.245Z,20.73
2019-04-03T07:36:54.164Z,16.62
2019-04-03T07:40:56.145Z,15.80
2019-04-03T07:44:58.072Z,19.25
2019-04-03T07:49:00.703Z,20.15
2019-04-03T07:53:02.788Z,21.20
2019-04-03T07:57:04.903Z,20.77
2019-04-03T08:01:09.860Z,19.25
2019-04-03T08:05:10.941Z,16.97
2019-04-03T08:09:12.866Z,15.30
2019-04-03T08:13:15.115Z,21.00
2019-04-03T08:17:19.038Z,24.50
2019-04-03T08:21:21.903Z,26.17
2019-04-03T08:25:24.001Z,17.90
2019-04-03T08:29:25.910Z,21.67
2019-04-03T08:33:28.246Z,17.27
2019-04-03T08:37:32.305Z,24.37
2019-04-03T08:41:36.924Z,26.33
2019-04-03T08:45:39.278Z,22.83
2019-04-03T08:49:41.600Z,19.67
2019-04-03T08:53:43.723Z,25.00
2019-04-03T08:57:46.836Z,24.37
2019-04-03T09:01:48.926Z,26.33
2019-04-03T09:05:52.010Z,20.43
2019-04-03T09:09:54.535Z,20.00
2019-04-03T09:13:56.462Z,22.00
2019-04-03T09:17:59.450Z,22.37
2019-04-03T09:22:01.342Z,25.90
2019-04-03T09:26:04.298Z,20.45
2019-04-03T09:30:10.662Z,22.45
2019-04-03T09:34:12.552Z,21.80
2019-04-03T09:38:14.478Z,12.17
2019-04-03T09:42:16.375Z,12.33
2019-04-03T09:46:18.285Z,17.00
2019-04-03T09:50:22.067Z,14.60
2019-04-03T09:54:24.079Z,14.33
2019-04-03T09:58:26.265Z,16.67
2019-04-03T10:02:28.189Z,15.47
2019-04-03T10:06:31.419Z,18.97
2019-04-03T10:10:33.662Z,19.27
2019-04-03T10:14:37.059Z,19.90
2019-04-03T10:18:41.162Z,19.23
2019-04-03T10:22:42.751Z,18.93
2019-04-03T10:26:44.843Z,22.37
2019-04-03T10:30:46.759Z,17.63
2019-04-03T10:34:50.035Z,22.87
2019-04-03T10:38:52.129Z,22.20
2019-04-03T10:42:54.245Z,22.70
2019-04-03T10:46:56.180Z,21.07
2019-04-03T10:50:58.104Z,21.63
2019-04-03T10:55:00.031Z,22.97
2019-04-03T10:59:11.062Z,24.82
2019-04-03T11:03:05.784Z,24.85
2019-04-03T11:07:07.907Z,26.02
2019-04-03T11:11:09.909Z,30.43
2019-04-03T11:15:13.932Z,31.30
2019-04-03T11:19:15.873Z,27.97
2019-04-03T11:23:18.095Z,30.77
2019-04-03T11:27:25.016Z,28.20
2019-04-03T11:31:28.250Z,27.53
2019-04-03T11:35:28.619Z,30.00
2019-04-03T11:39:30.538Z,28.23
2019-04-03T11:43:32.606Z,22.83
2019-04-03T11:47:34.734Z,26.37
2019-04-03T11:51:37.682Z,21.70
2019-04-03T11:55:41.331Z,20.70
2019-04-03T11:59:43.219Z,23.90
2019-04-03T12:03:45.266Z,24.97
2019-04-03T12:07:47.878Z,25.10
2019-04-03T12:11:50.190Z,20.20
2019-04-03T12:15:53.652Z,23.03
2019-04-03T12:19:55.859Z,25.20
2019-04-03T12:23:58.871Z,22.37
2019-04-03T12:28:02.046Z,18.93
2019-04-03T12:32:04.611Z,16.93
2019-04-03T12:36:08.792Z,13.10
2019-04-03T12:40:11.581Z,12.60
2019-04-03T12:44:13.548Z,11.23
2019-04-03T12:48:17.484Z,10.00
2019-04-03T12:52:19.239Z,12.78
2019-04-03T12:56:23.929Z,12.75
2019-04-03T13:00:25.898Z,10.55
2019-04-03T13:04:30.233Z,14.93
2019-04-03T13:08:31.661Z,11.27
2019-04-03T13:12:33.820Z,12.83
2019-04-03T13:16:35.741Z,11.43
2019-04-03T13:20:38.735Z,10.27
2019-04-03T13:24:43.382Z,12.10
2019-04-03T13:28:45.311Z,11.67
2019-04-03T13:32:57.646Z,13.63
2019-04-03T13:36:51.953Z,10.23
2019-04-03T13:40:54.313Z,9.90
2019-04-03T13:44:58.324Z,9.63
2019-04-03T13:49:00.383Z,11.57
2019-04-03T13:57:26.720Z,9.38
2019-04-03T14:01:29.007Z,8.95
2019-04-03T14:05:32.870Z,11.45
2019-04-03T14:09:34.981Z,9.20
2019-04-03T14:13:37.004Z,8.35
2019-04-03T14:17:39.199Z,11.63
2019-04-03T14:21:41.185Z,9.43
2019-04-03T14:25:43.163Z,10.10
2019-04-03T14:29:45.074Z,9.77
2019-04-03T14:33:47.306Z,11.53
2019-04-03T14:37:49.838Z,10.53
2019-04-03T14:41:54.326Z,10.77
2019-04-03T14:45:55.403Z,10.70
2019-04-03T14:49:57.302Z,11.63
2019-04-03T14:53:59.236Z,11.53
2019-04-03T14:58:01.933Z,13.90
2019-04-03T15:02:04.883Z,16.30
2019-04-03T15:06:06.941Z,14.50
2019-04-03T15:10:09.562Z,16.57
2019-04-03T15:14:11.704Z,11.50
2019-04-03T15:18:14.189Z,12.57
2019-04-03T15:22:16.465Z,7.60
2019-04-03T15:26:21.764Z,11.80
2019-04-03T15:30:24.885Z,12.17
2019-04-03T15:34:27.735Z,11.63
2019-04-03T15:38:30.075Z,10.10
2019-04-03T15:42:32.511Z,14.03
2019-04-03T15:46:34.489Z,13.50
2019-04-03T15:50:38.411Z,12.27
2019-04-03T15:54:40.175Z,12.77
2019-04-03T15:58:42.095Z,11.10
2019-04-03T16:02:47.145Z,10.90
2019-04-03T16:06:49.540Z,10.23
2019-04-03T16:10:51.666Z,11.03
2019-04-03T16:14:54.346Z,11.23
2019-04-03T16:18:57.306Z,9.70
2019-04-03T16:22:59.490Z,10.30
2019-04-03T16:27:01.670Z,10.28
2019-04-03T16:31:03.716Z,10.40
2019-04-03T16:35:08.262Z,7.08
2019-04-03T16:39:10.426Z,7.65
2019-04-03T16:43:12.691Z,9.13
2019-04-03T16:47:15.064Z,10.80
2019-04-03T16:51:16.973Z,11.67
2019-04-03T16:55:19.341Z,11.17
2019-04-03T16:59:21.250Z,11.77
2019-04-03T17:03:23.429Z,11.90
2019-04-03T17:07:25.370Z,14.37
2019-04-03T17:11:27.232Z,14.50
2019-04-03T17:15:29.135Z,10.83
2019-04-03T17:19:31.057Z,13.90
2019-04-03T17:23:32.973Z,12.50
2019-04-03T17:27:34.895Z,12.33
2019-04-03T17:31:36.792Z,11.17
2019-04-03T17:35:38.869Z,10.13
2019-04-03T17:39:41.884Z,11.07
2019-04-03T17:43:43.848Z,9.77
2019-04-03T17:47:45.788Z,11.27
2019-04-03T17:51:47.710Z,13.30
2019-04-03T17:55:49.683Z,7.50
2019-04-03T17:59:51.594Z,7.50
2019-04-03T18:03:54.485Z,11.25
2019-04-03T18:07:58.514Z,10.53
2019-04-03T18:12:00.101Z,9.53
2019-04-03T18:16:01.997Z,7.97
2019-04-03T18:20:05.457Z,12.70
2019-04-03T18:24:07.353Z,10.35
2019-04-03T18:28:10.336Z,9.80
2019-04-03T18:32:13.667Z,8.80
2019-04-03T18:36:16.889Z,8.57
2019-04-03T18:40:18.814Z,8.60
2019-04-03T18:44:22.355Z,11.30
2019-04-03T18:48:24.596Z,13.20
2019-04-03T18:52:26.526Z,8.80
2019-04-03T18:56:31.957Z,11.20
2019-04-03T19:00:33.193Z,7.07
2019-04-03T19:04:37.464Z,7.97
2019-04-03T19:08:38.710Z,14.40
2019-04-03T19:12:43.135Z,7.90
2019-04-03T19:16:47.854Z,12.33
2019-04-03T19:20:47.844Z,7.20
2019-04-03T19:24:49.768Z,8.47
2019-04-03T19:28:51.696Z,13.97
2019-04-03T19:32:54.647Z,10.27
2019-04-03T19:36:56.562Z,10.20
2019-04-03T19:40:58.465Z,10.40
2019-04-03T19:45:00.393Z,13.13
2019-04-03T19:49:02.322Z,7.93
2019-04-03T19:53:07.815Z,11.83
2019-04-03T19:57:08.789Z,19.02
2019-04-03T20:01:10.699Z,17.33
2019-04-03T20:05:13.032Z,16.13
2019-04-03T20:09:17.660Z,14.57
2019-04-03T20:13:18.738Z,16.53
2019-04-03T20:17:20.713Z,20.97
2019-04-03T20:21:22.639Z,13.67
2019-04-03T20:25:24.572Z,11.37
2019-04-03T20:29:28.142Z,12.43
2019-04-03T20:33:30.090Z,10.77
2019-04-03T20:37:31.983Z,12.90
2019-04-03T20:41:34.809Z,11.37
2019-04-03T20:45:38.132Z,11.53
2019-04-03T20:49:40.022Z,10.83
2019-04-03T20:53:41.912Z,12.43
2019-04-03T20:57:54.830Z,11.47
2019-04-03T21:01:47.452Z,11.47
2019-04-03T21:05:49.485Z,11.50
2019-04-03T21:09:51.427Z,10.97
2019-04-03T21:13:54.543Z,10.77
2019-04-03T21:17:56.446Z,12.60
2019-04-03T21:21:59.769Z,12.23
2019-04-03T21:26:02.204Z,11.65
2019-04-03T21:30:07.604Z,12.55
2019-04-03T21:34:09.491Z,11.43
2019-04-03T21:38:11.519Z,11.65
2019-04-03T21:42:14.403Z,12.23
2019-04-03T21:46:17.376Z,11.10
2019-04-03T21:50:20.018Z,9.40
2019-04-03T21:54:21.875Z,9.17
2019-04-03T21:58:23.771Z,9.27
2019-04-03T22:02:25.673Z,10.40
2019-04-03T22:06:27.861Z,8.90
2019-04-03T22:10:32.794Z,8.00
2019-04-03T22:14:33.405Z,6.97
2019-04-03T22:18:35.291Z,7.20
2019-04-03T22:22:38.158Z,6.33
2019-04-03T22:26:41.347Z,7.47
2019-04-03T22:30:43.333Z,7.27
2019-04-03T22:34:46.860Z,6.93
2019-04-03T22:38:48.742Z,8.80
2019-04-03T22:42:50.633Z,6.67
2019-04-03T22:46:54.116Z,6.10
2019-04-03T22:50:57.085Z,6.57
2019-04-03T22:54:58.950Z,6.97
2019-04-03T22:59:01.090Z,5.05
2019-04-03T23:03:03.489Z,5.30
2019-04-03T23:07:05.414Z,5.30
2019-04-03T23:11:07.301Z,4.58
2019-04-03T23:15:10.962Z,5.97
2019-04-03T23:19:12.846Z,3.67
2019-04-03T23:23:14.735Z,5.10
2019-04-03T23:27:16.636Z,3.53
2019-04-03T23:31:18.524Z,3.73
2019-04-03T23:35:21.184Z,3.80
2019-04-03T23:39:24.226Z,4.93
2019-04-03T23:43:26.122Z,6.83
2019-04-03T23:47:28.010Z,4.27
2019-04-03T23:51:29.983Z,6.03
2019-04-03T23:55:32.311Z,5.83
2019-04-03T23:59:34.213Z,5.77
